Long Branch, New Jersey
Current Conditions -  °F | °C
As of 10:35 PM on Wednesday 22 Oct 2014 (Local Time) from KBLM Reporting Station
Overcast Overcast  
Wind Chill: 52°   Ceiling: 1800
Heat Index: 52°   Visibility: 7mi
Dew Point: 45°   Wind: 16mph
Humidity: 76%   Direction: 340°NNW
Pressure: 29.73"   Gusts: 26mph
Location:  40.3°N, 73.99°W
Report Text: KBLM 230235Z AUTO 34014G23KT 7SM BKN018 OVC024 11/07 A2973 RMK AO1 P0008
Loading
Personal Weather Stations






























Interactive Weather Map
Tropical Storm Tracking
New forecast layout! Learn more

10-Day Weather Forecast

Advertisements
Track Severe Weather on mobile